sensor_id;sensor_type;location;lat;lon;timestamp;P1;durP1;ratioP1;P2;durP2;ratioP2
3847;SDS011;1939;48.720;9.166;2023-08-12T00:01:13;8.03;;;6.47;;
3847;SDS011;1939;48.720;9.166;2023-08-12T00:03:39;9.17;;;7.20;;
3847;SDS011;1939;48.720;9.166;2023-08-12T00:06:04;8.80;;;7.10;;
3847;SDS011;1939;48.720;9.166;2023-08-12T00:08:30;8.80;;;5.93;;
3847;SDS011;1939;48.720;9.166;2023-08-12T00:10:55;7.60;;;6.60;;
3847;SDS011;1939;48.720;9.166;2023-08-12T00:13:21;9.53;;;6.87;;
3847;SDS011;1939;48.720;9.166;2023-08-12T00:15:46;8.47;;;6.90;;
3847;SDS011;1939;48.720;9.166;2023-08-12T00:18:17;8.20;;;7.00;;
3847;SDS011;1939;48.720;9.166;2023-08-12T00:20:49;9.30;;;6.70;;
3847;SDS011;1939;48.720;9.166;2023-08-12T00:23:16;9.30;;;6.83;;
3847;SDS011;1939;48.720;9.166;2023-08-12T00:25:41;8.73;;;6.63;;
3847;SDS011;1939;48.720;9.166;2023-08-12T00:31:10;8.63;;;6.73;;
3847;SDS011;1939;48.720;9.166;2023-08-12T00:33:35;10.83;;;6.90;;
3847;SDS011;1939;48.720;9.166;2023-08-12T00:36:01;7.53;;;6.13;;
3847;SDS011;1939;48.720;9.166;2023-08-12T00:38:26;8.60;;;7.10;;
3847;SDS011;1939;48.720;9.166;2023-08-12T00:40:51;10.00;;;7.20;;
3847;SDS011;1939;48.720;9.166;2023-08-12T00:43:17;9.17;;;6.93;;
3847;SDS011;1939;48.720;9.166;2023-08-12T00:45:42;7.90;;;7.10;;
3847;SDS011;1939;48.720;9.166;2023-08-12T00:48:07;10.93;;;7.13;;
3847;SDS011;1939;48.720;9.166;2023-08-12T00:50:33;8.57;;;7.30;;
3847;SDS011;1939;48.720;9.166;2023-08-12T00:52:58;8.20;;;7.00;;
3847;SDS011;1939;48.720;9.166;2023-08-12T00:55:24;11.10;;;6.90;;
3847;SDS011;1939;48.720;9.166;2023-08-12T00:57:49;10.10;;;7.00;;
3847;SDS011;1939;48.720;9.166;2023-08-12T01:00:15;7.40;;;6.60;;
3847;SDS011;1939;48.720;9.166;2023-08-12T01:02:42;12.00;;;7.00;;
3847;SDS011;1939;48.720;9.166;2023-08-12T01:05:10;9.43;;;7.40;;
3847;SDS011;1939;48.720;9.166;2023-08-12T01:07:36;7.00;;;6.30;;
3847;SDS011;1939;48.720;9.166;2023-08-12T01:10:01;9.03;;;7.13;;
3847;SDS011;1939;48.720;9.166;2023-08-12T01:12:29;16.53;;;8.03;;
3847;SDS011;1939;48.720;9.166;2023-08-12T01:15:07;10.17;;;6.17;;
3847;SDS011;1939;48.720;9.166;2023-08-12T01:17:34;8.97;;;6.73;;
3847;SDS011;1939;48.720;9.166;2023-08-12T01:19:59;17.53;;;8.10;;
3847;SDS011;1939;48.720;9.166;2023-08-12T01:22:25;9.83;;;7.53;;
3847;SDS011;1939;48.720;9.166;2023-08-12T01:24:52;10.60;;;7.77;;
3847;SDS011;1939;48.720;9.166;2023-08-12T01:27:17;10.63;;;6.90;;
3847;SDS011;1939;48.720;9.166;2023-08-12T01:29:44;9.10;;;7.67;;
3847;SDS011;1939;48.720;9.166;2023-08-12T01:40:09;6.87;;;6.10;;
3847;SDS011;1939;48.720;9.166;2023-08-12T01:42:35;10.40;;;6.50;;
3847;SDS011;1939;48.720;9.166;2023-08-12T01:47:50;9.73;;;7.33;;
3847;SDS011;1939;48.720;9.166;2023-08-12T01:50:16;9.27;;;6.90;;
3847;SDS011;1939;48.720;9.166;2023-08-12T01:52:41;8.00;;;6.77;;
3847;SDS011;1939;48.720;9.166;2023-08-12T01:58:17;7.97;;;7.17;;
3847;SDS011;1939;48.720;9.166;2023-08-12T02:00:42;7.97;;;7.17;;
3847;SDS011;1939;48.720;9.166;2023-08-12T02:03:07;14.03;;;7.60;;
3847;SDS011;1939;48.720;9.166;2023-08-12T02:05:33;9.03;;;6.70;;
3847;SDS011;1939;48.720;9.166;2023-08-12T02:07:58;9.00;;;7.40;;
3847;SDS011;1939;48.720;9.166;2023-08-12T02:10:23;11.37;;;7.00;;
3847;SDS011;1939;48.720;9.166;2023-08-12T02:12:48;10.10;;;6.90;;
3847;SDS011;1939;48.720;9.166;2023-08-12T02:15:13;14.47;;;6.87;;
3847;SDS011;1939;48.720;9.166;2023-08-12T02:17:39;12.53;;;8.63;;
3847;SDS011;1939;48.720;9.166;2023-08-12T02:20:04;8.30;;;7.30;;
3847;SDS011;1939;48.720;9.166;2023-08-12T02:22:29;9.30;;;6.70;;
3847;SDS011;1939;48.720;9.166;2023-08-12T02:24:55;7.37;;;6.67;;
3847;SDS011;1939;48.720;9.166;2023-08-12T02:27:20;16.30;;;8.43;;
3847;SDS011;1939;48.720;9.166;2023-08-12T02:29:45;13.33;;;7.03;;
3847;SDS011;1939;48.720;9.166;2023-08-12T02:32:10;11.27;;;7.80;;
3847;SDS011;1939;48.720;9.166;2023-08-12T02:34:36;10.27;;;7.33;;
3847;SDS011;1939;48.720;9.166;2023-08-12T02:37:01;10.03;;;7.13;;
3847;SDS011;1939;48.720;9.166;2023-08-12T02:39:26;9.50;;;7.47;;
3847;SDS011;1939;48.720;9.166;2023-08-12T02:41:51;11.10;;;7.77;;
3847;SDS011;1939;48.720;9.166;2023-08-12T02:44:17;18.57;;;6.83;;
3847;SDS011;1939;48.720;9.166;2023-08-12T02:46:42;14.00;;;7.63;;
3847;SDS011;1939;48.720;9.166;2023-08-12T02:49:07;10.30;;;7.73;;
3847;SDS011;1939;48.720;9.166;2023-08-12T02:51:32;9.90;;;6.80;;
3847;SDS011;1939;48.720;9.166;2023-08-12T02:53:58;11.47;;;6.73;;
3847;SDS011;1939;48.720;9.166;2023-08-12T02:56:23;9.23;;;7.50;;
3847;SDS011;1939;48.720;9.166;2023-08-12T02:58:48;7.77;;;6.70;;
3847;SDS011;1939;48.720;9.166;2023-08-12T03:01:20;9.60;;;6.07;;
3847;SDS011;1939;48.720;9.166;2023-08-12T03:03:57;10.00;;;6.77;;
3847;SDS011;1939;48.720;9.166;2023-08-12T03:06:23;10.17;;;7.10;;
3847;SDS011;1939;48.720;9.166;2023-08-12T03:08:48;10.00;;;7.13;;
3847;SDS011;1939;48.720;9.166;2023-08-12T03:11:13;13.77;;;7.73;;
3847;SDS011;1939;48.720;9.166;2023-08-12T03:13:40;9.10;;;7.20;;
3847;SDS011;1939;48.720;9.166;2023-08-12T03:16:10;9.27;;;7.27;;
3847;SDS011;1939;48.720;9.166;2023-08-12T03:18:35;7.10;;;6.37;;
3847;SDS011;1939;48.720;9.166;2023-08-12T03:21:04;11.03;;;7.67;;
3847;SDS011;1939;48.720;9.166;2023-08-12T03:23:30;9.23;;;7.07;;
3847;SDS011;1939;48.720;9.166;2023-08-12T03:25:55;9.30;;;7.30;;
3847;SDS011;1939;48.720;9.166;2023-08-12T03:28:20;8.00;;;6.40;;
3847;SDS011;1939;48.720;9.166;2023-08-12T03:30:52;11.00;;;7.23;;
3847;SDS011;1939;48.720;9.166;2023-08-12T03:33:18;10.03;;;6.97;;
3847;SDS011;1939;48.720;9.166;2023-08-12T03:35:47;18.23;;;8.97;;
3847;SDS011;1939;48.720;9.166;2023-08-12T03:38:12;15.33;;;7.63;;
3847;SDS011;1939;48.720;9.166;2023-08-12T03:40:40;14.57;;;7.40;;
3847;SDS011;1939;48.720;9.166;2023-08-12T03:43:06;8.80;;;7.00;;
3847;SDS011;1939;48.720;9.166;2023-08-12T03:45:31;7.73;;;6.93;;
3847;SDS011;1939;48.720;9.166;2023-08-12T03:47:56;9.10;;;6.50;;
3847;SDS011;1939;48.720;9.166;2023-08-12T03:50:22;9.73;;;7.40;;
3847;SDS011;1939;48.720;9.166;2023-08-12T03:52:47;12.60;;;7.20;;
3847;SDS011;1939;48.720;9.166;2023-08-12T03:55:12;8.17;;;6.00;;
3847;SDS011;1939;48.720;9.166;2023-08-12T03:57:37;9.13;;;6.73;;
3847;SDS011;1939;48.720;9.166;2023-08-12T04:00:03;7.80;;;7.00;;
3847;SDS011;1939;48.720;9.166;2023-08-12T04:02:29;10.37;;;6.60;;
3847;SDS011;1939;48.720;9.166;2023-08-12T04:04:54;8.70;;;6.67;;
3847;SDS011;1939;48.720;9.166;2023-08-12T04:07:19;9.90;;;7.23;;
3847;SDS011;1939;48.720;9.166;2023-08-12T04:09:44;9.47;;;7.80;;
3847;SDS011;1939;48.720;9.166;2023-08-12T04:12:10;15.33;;;7.73;;
3847;SDS011;1939;48.720;9.166;2023-08-12T04:14:35;17.93;;;7.50;;
3847;SDS011;1939;48.720;9.166;2023-08-12T04:17:00;9.60;;;6.70;;
3847;SDS011;1939;48.720;9.166;2023-08-12T04:19:25;11.60;;;7.90;;
3847;SDS011;1939;48.720;9.166;2023-08-12T04:21:51;6.70;;;5.97;;
3847;SDS011;1939;48.720;9.166;2023-08-12T04:24:16;9.57;;;6.73;;
3847;SDS011;1939;48.720;9.166;2023-08-12T04:26:41;9.10;;;7.43;;
3847;SDS011;1939;48.720;9.166;2023-08-12T04:29:06;8.70;;;6.70;;
3847;SDS011;1939;48.720;9.166;2023-08-12T04:31:32;10.80;;;6.80;;
3847;SDS011;1939;48.720;9.166;2023-08-12T04:33:57;7.80;;;5.90;;
3847;SDS011;1939;48.720;9.166;2023-08-12T04:36:23;7.40;;;6.67;;
3847;SDS011;1939;48.720;9.166;2023-08-12T04:38:48;8.40;;;6.80;;
3847;SDS011;1939;48.720;9.166;2023-08-12T04:41:13;9.70;;;6.30;;
3847;SDS011;1939;48.720;9.166;2023-08-12T04:43:38;13.57;;;6.43;;
3847;SDS011;1939;48.720;9.166;2023-08-12T04:46:04;12.90;;;6.50;;
3847;SDS011;1939;48.720;9.166;2023-08-12T04:48:30;8.10;;;6.00;;
3847;SDS011;1939;48.720;9.166;2023-08-12T04:50:56;7.93;;;6.00;;
3847;SDS011;1939;48.720;9.166;2023-08-12T04:53:25;9.97;;;6.87;;
3847;SDS011;1939;48.720;9.166;2023-08-12T04:55:50;9.63;;;6.77;;
3847;SDS011;1939;48.720;9.166;2023-08-12T04:58:16;8.67;;;7.30;;
3847;SDS011;1939;48.720;9.166;2023-08-12T05:00:42;8.23;;;7.43;;
3847;SDS011;1939;48.720;9.166;2023-08-12T05:03:07;13.10;;;7.10;;
3847;SDS011;1939;48.720;9.166;2023-08-12T05:05:32;10.40;;;6.37;;
3847;SDS011;1939;48.720;9.166;2023-08-12T05:07:57;10.00;;;6.10;;
3847;SDS011;1939;48.720;9.166;2023-08-12T05:10:23;11.43;;;7.50;;
3847;SDS011;1939;48.720;9.166;2023-08-12T05:12:48;8.73;;;7.00;;
3847;SDS011;1939;48.720;9.166;2023-08-12T05:15:15;7.50;;;6.73;;
3847;SDS011;1939;48.720;9.166;2023-08-12T05:17:40;9.23;;;6.30;;
3847;SDS011;1939;48.720;9.166;2023-08-12T05:20:06;10.20;;;6.50;;
3847;SDS011;1939;48.720;9.166;2023-08-12T05:22:32;10.27;;;6.20;;
3847;SDS011;1939;48.720;9.166;2023-08-12T05:24:58;11.17;;;7.57;;
3847;SDS011;1939;48.720;9.166;2023-08-12T05:27:23;8.63;;;6.80;;
3847;SDS011;1939;48.720;9.166;2023-08-12T05:30:00;6.93;;;6.23;;
3847;SDS011;1939;48.720;9.166;2023-08-12T05:32:44;7.40;;;5.90;;
3847;SDS011;1939;48.720;9.166;2023-08-12T05:35:10;8.80;;;6.47;;
3847;SDS011;1939;48.720;9.166;2023-08-12T05:37:35;8.50;;;6.70;;
3847;SDS011;1939;48.720;9.166;2023-08-12T05:40:00;6.90;;;6.00;;
3847;SDS011;1939;48.720;9.166;2023-08-12T05:42:25;9.60;;;6.90;;
3847;SDS011;1939;48.720;9.166;2023-08-12T05:44:51;11.43;;;6.83;;
3847;SDS011;1939;48.720;9.166;2023-08-12T05:47:16;8.47;;;6.30;;
3847;SDS011;1939;48.720;9.166;2023-08-12T05:49:41;13.23;;;6.60;;
3847;SDS011;1939;48.720;9.166;2023-08-12T05:52:07;7.10;;;5.57;;
3847;SDS011;1939;48.720;9.166;2023-08-12T05:54:32;8.57;;;6.50;;
3847;SDS011;1939;48.720;9.166;2023-08-12T05:56:58;8.20;;;6.73;;
3847;SDS011;1939;48.720;9.166;2023-08-12T05:59:23;7.63;;;6.10;;
3847;SDS011;1939;48.720;9.166;2023-08-12T06:01:48;7.60;;;6.80;;
3847;SDS011;1939;48.720;9.166;2023-08-12T06:04:13;7.10;;;6.30;;
3847;SDS011;1939;48.720;9.166;2023-08-12T06:06:38;8.30;;;7.07;;
3847;SDS011;1939;48.720;9.166;2023-08-12T06:09:04;12.27;;;7.63;;
3847;SDS011;1939;48.720;9.166;2023-08-12T06:11:29;8.53;;;6.63;;
3847;SDS011;1939;48.720;9.166;2023-08-12T06:13:54;9.60;;;7.47;;
3847;SDS011;1939;48.720;9.166;2023-08-12T06:16:19;8.00;;;6.57;;
3847;SDS011;1939;48.720;9.166;2023-08-12T06:18:45;9.23;;;6.77;;
3847;SDS011;1939;48.720;9.166;2023-08-12T06:21:10;11.67;;;8.17;;
3847;SDS011;1939;48.720;9.166;2023-08-12T06:23:35;11.90;;;7.77;;
3847;SDS011;1939;48.720;9.166;2023-08-12T06:26:00;7.53;;;6.73;;
3847;SDS011;1939;48.720;9.166;2023-08-12T06:28:26;8.60;;;7.40;;
3847;SDS011;1939;48.720;9.166;2023-08-12T06:30:51;10.03;;;6.57;;
3847;SDS011;1939;48.720;9.166;2023-08-12T06:33:16;8.73;;;7.37;;
3847;SDS011;1939;48.720;9.166;2023-08-12T06:35:41;8.83;;;6.50;;
3847;SDS011;1939;48.720;9.166;2023-08-12T06:38:07;8.40;;;6.50;;
3847;SDS011;1939;48.720;9.166;2023-08-12T06:40:34;12.03;;;8.00;;
3847;SDS011;1939;48.720;9.166;2023-08-12T06:43:00;9.77;;;7.70;;
3847;SDS011;1939;48.720;9.166;2023-08-12T06:45:25;9.73;;;7.03;;
3847;SDS011;1939;48.720;9.166;2023-08-12T06:47:52;8.30;;;6.03;;
3847;SDS011;1939;48.720;9.166;2023-08-12T06:50:31;9.07;;;7.77;;
3847;SDS011;1939;48.720;9.166;2023-08-12T06:52:58;12.07;;;6.20;;
3847;SDS011;1939;48.720;9.166;2023-08-12T06:55:23;7.90;;;6.40;;
3847;SDS011;1939;48.720;9.166;2023-08-12T06:57:48;8.03;;;6.20;;
3847;SDS011;1939;48.720;9.166;2023-08-12T07:00:14;8.23;;;6.20;;
3847;SDS011;1939;48.720;9.166;2023-08-12T07:02:39;6.60;;;5.93;;
3847;SDS011;1939;48.720;9.166;2023-08-12T07:05:07;7.30;;;5.30;;
3847;SDS011;1939;48.720;9.166;2023-08-12T07:07:32;5.90;;;5.30;;
3847;SDS011;1939;48.720;9.166;2023-08-12T07:09:58;8.73;;;4.90;;
3847;SDS011;1939;48.720;9.166;2023-08-12T07:12:23;5.40;;;4.47;;
3847;SDS011;1939;48.720;9.166;2023-08-12T07:14:48;5.30;;;4.70;;
3847;SDS011;1939;48.720;9.166;2023-08-12T07:17:13;4.60;;;4.20;;
3847;SDS011;1939;48.720;9.166;2023-08-12T07:19:39;5.20;;;4.70;;
3847;SDS011;1939;48.720;9.166;2023-08-12T07:22:04;4.73;;;3.40;;
3847;SDS011;1939;48.720;9.166;2023-08-12T07:24:29;4.77;;;4.30;;
3847;SDS011;1939;48.720;9.166;2023-08-12T07:26:55;3.97;;;3.67;;
3847;SDS011;1939;48.720;9.166;2023-08-12T07:29:20;4.10;;;3.80;;
3847;SDS011;1939;48.720;9.166;2023-08-12T07:31:46;5.37;;;3.97;;
3847;SDS011;1939;48.720;9.166;2023-08-12T07:34:11;4.60;;;3.73;;
3847;SDS011;1939;48.720;9.166;2023-08-12T07:36:38;4.00;;;3.13;;
3847;SDS011;1939;48.720;9.166;2023-08-12T07:39:04;4.47;;;3.50;;
3847;SDS011;1939;48.720;9.166;2023-08-12T07:41:33;4.40;;;4.00;;
3847;SDS011;1939;48.720;9.166;2023-08-12T07:44:00;3.60;;;3.30;;
3847;SDS011;1939;48.720;9.166;2023-08-12T07:46:27;4.03;;;3.73;;
3847;SDS011;1939;48.720;9.166;2023-08-12T07:48:52;4.20;;;3.53;;
3847;SDS011;1939;48.720;9.166;2023-08-12T07:51:17;4.50;;;3.40;;
3847;SDS011;1939;48.720;9.166;2023-08-12T07:53:42;3.30;;;3.10;;
3847;SDS011;1939;48.720;9.166;2023-08-12T07:56:08;4.60;;;3.43;;
3847;SDS011;1939;48.720;9.166;2023-08-12T07:58:33;2.80;;;2.60;;
3847;SDS011;1939;48.720;9.166;2023-08-12T08:00:59;6.13;;;3.10;;
3847;SDS011;1939;48.720;9.166;2023-08-12T08:03:24;3.00;;;2.70;;
3847;SDS011;1939;48.720;9.166;2023-08-12T08:05:50;3.13;;;2.90;;
3847;SDS011;1939;48.720;9.166;2023-08-12T08:08:15;3.27;;;3.07;;
3847;SDS011;1939;48.720;9.166;2023-08-12T08:10:40;2.83;;;2.63;;
3847;SDS011;1939;48.720;9.166;2023-08-12T08:13:05;2.67;;;2.50;;
3847;SDS011;1939;48.720;9.166;2023-08-12T08:15:31;5.50;;;2.60;;
3847;SDS011;1939;48.720;9.166;2023-08-12T08:17:56;4.93;;;2.73;;
3847;SDS011;1939;48.720;9.166;2023-08-12T08:20:21;4.93;;;2.73;;
3847;SDS011;1939;48.720;9.166;2023-08-12T08:22:47;4.07;;;3.67;;
3847;SDS011;1939;48.720;9.166;2023-08-12T08:25:12;4.83;;;3.20;;
3847;SDS011;1939;48.720;9.166;2023-08-12T08:27:37;4.17;;;3.30;;
3847;SDS011;1939;48.720;9.166;2023-08-12T08:30:03;4.07;;;2.63;;
3847;SDS011;1939;48.720;9.166;2023-08-12T08:32:29;3.13;;;2.83;;
3847;SDS011;1939;48.720;9.166;2023-08-12T08:34:54;3.17;;;2.63;;
3847;SDS011;1939;48.720;9.166;2023-08-12T08:37:19;2.90;;;2.70;;
3847;SDS011;1939;48.720;9.166;2023-08-12T08:39:44;3.10;;;2.90;;
3847;SDS011;1939;48.720;9.166;2023-08-12T08:42:15;3.10;;;2.90;;
3847;SDS011;1939;48.720;9.166;2023-08-12T08:44:48;2.80;;;2.60;;
3847;SDS011;1939;48.720;9.166;2023-08-12T08:47:16;2.77;;;2.47;;
3847;SDS011;1939;48.720;9.166;2023-08-12T08:49:44;2.87;;;2.60;;
3847;SDS011;1939;48.720;9.166;2023-08-12T08:52:09;2.87;;;2.70;;
3847;SDS011;1939;48.720;9.166;2023-08-12T08:54:35;5.33;;;3.07;;
3847;SDS011;1939;48.720;9.166;2023-08-12T08:57:00;4.80;;;2.37;;
3847;SDS011;1939;48.720;9.166;2023-08-12T08:59:25;3.27;;;2.40;;
3847;SDS011;1939;48.720;9.166;2023-08-12T09:01:51;2.30;;;2.20;;
3847;SDS011;1939;48.720;9.166;2023-08-12T09:04:16;2.70;;;2.43;;
3847;SDS011;1939;48.720;9.166;2023-08-12T09:06:42;2.83;;;2.50;;
3847;SDS011;1939;48.720;9.166;2023-08-12T09:09:09;2.63;;;2.43;;
3847;SDS011;1939;48.720;9.166;2023-08-12T09:11:35;3.40;;;3.10;;
3847;SDS011;1939;48.720;9.166;2023-08-12T09:14:02;2.20;;;2.10;;
3847;SDS011;1939;48.720;9.166;2023-08-12T09:16:28;2.83;;;2.63;;
3847;SDS011;1939;48.720;9.166;2023-08-12T09:18:54;2.20;;;2.10;;
3847;SDS011;1939;48.720;9.166;2023-08-12T09:21:19;4.30;;;2.30;;
3847;SDS011;1939;48.720;9.166;2023-08-12T09:23:45;2.43;;;2.20;;
3847;SDS011;1939;48.720;9.166;2023-08-12T09:26:14;2.53;;;2.30;;
3847;SDS011;1939;48.720;9.166;2023-08-12T09:28:40;2.97;;;2.70;;
3847;SDS011;1939;48.720;9.166;2023-08-12T09:31:05;2.20;;;2.00;;
3847;SDS011;1939;48.720;9.166;2023-08-12T09:33:30;7.30;;;2.73;;
3847;SDS011;1939;48.720;9.166;2023-08-12T09:35:56;3.03;;;2.37;;
3847;SDS011;1939;48.720;9.166;2023-08-12T09:38:24;2.93;;;2.67;;
3847;SDS011;1939;48.720;9.166;2023-08-12T09:40:51;4.50;;;3.17;;
3847;SDS011;1939;48.720;9.166;2023-08-12T09:43:17;3.73;;;2.70;;
3847;SDS011;1939;48.720;9.166;2023-08-12T09:45:43;5.43;;;2.70;;
3847;SDS011;1939;48.720;9.166;2023-08-12T09:48:09;3.17;;;2.87;;
3847;SDS011;1939;48.720;9.166;2023-08-12T09:50:34;3.17;;;2.90;;
3847;SDS011;1939;48.720;9.166;2023-08-12T09:53:01;5.37;;;3.00;;
3847;SDS011;1939;48.720;9.166;2023-08-12T09:55:28;3.90;;;3.40;;
3847;SDS011;1939;48.720;9.166;2023-08-12T09:57:54;5.40;;;2.83;;
3847;SDS011;1939;48.720;9.166;2023-08-12T10:00:23;4.60;;;3.20;;
3847;SDS011;1939;48.720;9.166;2023-08-12T10:02:49;4.83;;;3.70;;
3847;SDS011;1939;48.720;9.166;2023-08-12T10:05:19;3.67;;;3.37;;
3847;SDS011;1939;48.720;9.166;2023-08-12T10:07:45;5.33;;;3.37;;
3847;SDS011;1939;48.720;9.166;2023-08-12T10:10:11;6.80;;;3.63;;
3847;SDS011;1939;48.720;9.166;2023-08-12T10:12:37;7.03;;;3.30;;
3847;SDS011;1939;48.720;9.166;2023-08-12T10:15:04;6.13;;;3.20;;
3847;SDS011;1939;48.720;9.166;2023-08-12T10:17:30;3.57;;;3.27;;
3847;SDS011;1939;48.720;9.166;2023-08-12T10:19:56;3.53;;;3.00;;
3847;SDS011;1939;48.720;9.166;2023-08-12T10:22:23;3.50;;;2.90;;
3847;SDS011;1939;48.720;9.166;2023-08-12T10:24:49;4.13;;;3.43;;
3847;SDS011;1939;48.720;9.166;2023-08-12T10:27:14;5.17;;;4.07;;
3847;SDS011;1939;48.720;9.166;2023-08-12T10:29:44;8.80;;;3.50;;
3847;SDS011;1939;48.720;9.166;2023-08-12T10:32:10;4.30;;;3.40;;
3847;SDS011;1939;48.720;9.166;2023-08-12T10:34:36;5.00;;;4.20;;
3847;SDS011;1939;48.720;9.166;2023-08-12T10:37:02;3.70;;;3.40;;
3847;SDS011;1939;48.720;9.166;2023-08-12T10:39:28;3.50;;;3.20;;
3847;SDS011;1939;48.720;9.166;2023-08-12T10:41:56;4.33;;;3.00;;
3847;SDS011;1939;48.720;9.166;2023-08-12T10:44:21;4.13;;;3.33;;
3847;SDS011;1939;48.720;9.166;2023-08-12T10:46:50;3.73;;;3.23;;
3847;SDS011;1939;48.720;9.166;2023-08-12T10:49:16;3.83;;;3.30;;
3847;SDS011;1939;48.720;9.166;2023-08-12T10:51:51;4.90;;;3.47;;
3847;SDS011;1939;48.720;9.166;2023-08-12T10:59:58;6.03;;;3.70;;
3847;SDS011;1939;48.720;9.166;2023-08-12T11:05:13;6.17;;;3.20;;
3847;SDS011;1939;48.720;9.166;2023-08-12T11:07:43;3.20;;;2.90;;
3847;SDS011;1939;48.720;9.166;2023-08-12T11:10:20;5.60;;;3.63;;
3847;SDS011;1939;48.720;9.166;2023-08-12T11:15:29;4.20;;;3.30;;
3847;SDS011;1939;48.720;9.166;2023-08-12T11:17:55;10.20;;;3.60;;
3847;SDS011;1939;48.720;9.166;2023-08-12T11:20:20;4.13;;;3.60;;
3847;SDS011;1939;48.720;9.166;2023-08-12T11:22:45;5.40;;;3.57;;
3847;SDS011;1939;48.720;9.166;2023-08-12T11:25:11;4.87;;;3.73;;
3847;SDS011;1939;48.720;9.166;2023-08-12T11:27:41;4.90;;;4.20;;
3847;SDS011;1939;48.720;9.166;2023-08-12T11:30:07;3.57;;;3.27;;
3847;SDS011;1939;48.720;9.166;2023-08-12T11:32:32;4.67;;;3.70;;
3847;SDS011;1939;48.720;9.166;2023-08-12T11:34:58;4.57;;;3.73;;
3847;SDS011;1939;48.720;9.166;2023-08-12T11:37:23;5.53;;;4.10;;
3847;SDS011;1939;48.720;9.166;2023-08-12T11:39:51;3.43;;;3.13;;
3847;SDS011;1939;48.720;9.166;2023-08-12T11:42:16;3.67;;;3.30;;
3847;SDS011;1939;48.720;9.166;2023-08-12T11:44:41;6.20;;;3.30;;
3847;SDS011;1939;48.720;9.166;2023-08-12T11:47:07;6.23;;;3.70;;
3847;SDS011;1939;48.720;9.166;2023-08-12T11:49:32;4.10;;;3.70;;
3847;SDS011;1939;48.720;9.166;2023-08-12T11:51:57;3.80;;;3.10;;
3847;SDS011;1939;48.720;9.166;2023-08-12T11:54:22;5.70;;;3.00;;
3847;SDS011;1939;48.720;9.166;2023-08-12T11:56:48;6.00;;;2.03;;
3847;SDS011;1939;48.720;9.166;2023-08-12T11:59:13;4.10;;;3.30;;
3847;SDS011;1939;48.720;9.166;2023-08-12T12:01:39;6.23;;;3.37;;
3847;SDS011;1939;48.720;9.166;2023-08-12T12:04:04;4.47;;;2.40;;
3847;SDS011;1939;48.720;9.166;2023-08-12T12:06:36;3.03;;;2.63;;
3847;SDS011;1939;48.720;9.166;2023-08-12T12:09:05;5.67;;;3.00;;
3847;SDS011;1939;48.720;9.166;2023-08-12T12:11:33;4.87;;;3.40;;
3847;SDS011;1939;48.720;9.166;2023-08-12T12:14:06;4.57;;;3.87;;
3847;SDS011;1939;48.720;9.166;2023-08-12T12:19:03;5.53;;;3.93;;
3847;SDS011;1939;48.720;9.166;2023-08-12T12:21:30;6.70;;;4.00;;
3847;SDS011;1939;48.720;9.166;2023-08-12T12:23:55;5.10;;;3.80;;
3847;SDS011;1939;48.720;9.166;2023-08-12T12:26:21;5.20;;;4.20;;
3847;SDS011;1939;48.720;9.166;2023-08-12T12:28:47;6.73;;;4.57;;
3847;SDS011;1939;48.720;9.166;2023-08-12T12:31:12;9.43;;;6.13;;
3847;SDS011;1939;48.720;9.166;2023-08-12T12:33:38;8.33;;;5.47;;
3847;SDS011;1939;48.720;9.166;2023-08-12T12:36:03;6.60;;;5.17;;
3847;SDS011;1939;48.720;9.166;2023-08-12T12:38:29;8.53;;;5.90;;
3847;SDS011;1939;48.720;9.166;2023-08-12T12:40:54;7.03;;;5.23;;
3847;SDS011;1939;48.720;9.166;2023-08-12T12:43:19;11.83;;;6.33;;
3847;SDS011;1939;48.720;9.166;2023-08-12T12:45:44;11.20;;;6.70;;
3847;SDS011;1939;48.720;9.166;2023-08-12T12:48:10;15.27;;;7.10;;
3847;SDS011;1939;48.720;9.166;2023-08-12T12:50:38;14.17;;;6.90;;
3847;SDS011;1939;48.720;9.166;2023-08-12T12:53:03;17.50;;;7.10;;
3847;SDS011;1939;48.720;9.166;2023-08-12T12:55:28;14.50;;;8.27;;
3847;SDS011;1939;48.720;9.166;2023-08-12T12:57:53;14.67;;;8.30;;
3847;SDS011;1939;48.720;9.166;2023-08-12T13:00:19;15.23;;;8.07;;
3847;SDS011;1939;48.720;9.166;2023-08-12T13:02:44;11.83;;;8.60;;
3847;SDS011;1939;48.720;9.166;2023-08-12T13:05:09;19.23;;;8.07;;
3847;SDS011;1939;48.720;9.166;2023-08-12T13:07:34;14.80;;;8.23;;
3847;SDS011;1939;48.720;9.166;2023-08-12T13:10:00;12.37;;;8.37;;
3847;SDS011;1939;48.720;9.166;2023-08-12T13:12:25;9.83;;;7.90;;
3847;SDS011;1939;48.720;9.166;2023-08-12T13:14:50;13.50;;;8.30;;
3847;SDS011;1939;48.720;9.166;2023-08-12T13:17:15;10.90;;;8.47;;
3847;SDS011;1939;48.720;9.166;2023-08-12T13:19:41;13.20;;;8.93;;
3847;SDS011;1939;48.720;9.166;2023-08-12T13:22:13;12.93;;;8.57;;
3847;SDS011;1939;48.720;9.166;2023-08-12T13:24:40;15.97;;;9.10;;
3847;SDS011;1939;48.720;9.166;2023-08-12T13:27:06;10.20;;;6.80;;
3847;SDS011;1939;48.720;9.166;2023-08-12T13:29:32;14.50;;;8.03;;
3847;SDS011;1939;48.720;9.166;2023-08-12T13:31:58;12.67;;;9.30;;
3847;SDS011;1939;48.720;9.166;2023-08-12T13:34:23;9.23;;;6.87;;
3847;SDS011;1939;48.720;9.166;2023-08-12T13:36:48;9.57;;;6.80;;
3847;SDS011;1939;48.720;9.166;2023-08-12T13:39:13;12.87;;;7.00;;
3847;SDS011;1939;48.720;9.166;2023-08-12T13:41:39;16.53;;;7.17;;
3847;SDS011;1939;48.720;9.166;2023-08-12T13:44:04;13.87;;;6.93;;
3847;SDS011;1939;48.720;9.166;2023-08-12T13:46:29;7.40;;;5.67;;
3847;SDS011;1939;48.720;9.166;2023-08-12T13:48:54;10.40;;;6.27;;
3847;SDS011;1939;48.720;9.166;2023-08-12T13:51:20;8.83;;;4.67;;
3847;SDS011;1939;48.720;9.166;2023-08-12T13:53:45;8.50;;;5.00;;
3847;SDS011;1939;48.720;9.166;2023-08-12T13:56:10;8.13;;;4.53;;
3847;SDS011;1939;48.720;9.166;2023-08-12T13:58:36;4.97;;;3.80;;
3847;SDS011;1939;48.720;9.166;2023-08-12T14:01:01;5.00;;;4.13;;
3847;SDS011;1939;48.720;9.166;2023-08-12T14:03:27;6.90;;;4.27;;
3847;SDS011;1939;48.720;9.166;2023-08-12T14:05:52;7.40;;;3.53;;
3847;SDS011;1939;48.720;9.166;2023-08-12T14:08:18;5.83;;;4.20;;
3847;SDS011;1939;48.720;9.166;2023-08-12T14:10:44;6.90;;;4.10;;
3847;SDS011;1939;48.720;9.166;2023-08-12T14:13:10;4.73;;;3.70;;
3847;SDS011;1939;48.720;9.166;2023-08-12T14:15:35;6.37;;;4.20;;
3847;SDS011;1939;48.720;9.166;2023-08-12T14:18:00;5.03;;;3.70;;
3847;SDS011;1939;48.720;9.166;2023-08-12T14:20:25;8.67;;;4.00;;
3847;SDS011;1939;48.720;9.166;2023-08-12T14:22:51;5.80;;;3.50;;
3847;SDS011;1939;48.720;9.166;2023-08-12T14:25:16;8.43;;;3.53;;
3847;SDS011;1939;48.720;9.166;2023-08-12T14:27:41;5.10;;;2.83;;
3847;SDS011;1939;48.720;9.166;2023-08-12T14:30:07;4.00;;;3.17;;
3847;SDS011;1939;48.720;9.166;2023-08-12T14:32:32;2.97;;;2.40;;
3847;SDS011;1939;48.720;9.166;2023-08-12T14:34:57;2.23;;;2.00;;
3847;SDS011;1939;48.720;9.166;2023-08-12T14:37:22;3.77;;;2.33;;
3847;SDS011;1939;48.720;9.166;2023-08-12T14:39:48;3.17;;;2.07;;
3847;SDS011;1939;48.720;9.166;2023-08-12T14:42:13;3.23;;;2.10;;
3847;SDS011;1939;48.720;9.166;2023-08-12T14:44:38;4.17;;;2.30;;
3847;SDS011;1939;48.720;9.166;2023-08-12T14:47:04;2.63;;;2.40;;
3847;SDS011;1939;48.720;9.166;2023-08-12T14:49:47;5.57;;;2.37;;
3847;SDS011;1939;48.720;9.166;2023-08-12T14:52:15;4.13;;;2.60;;
3847;SDS011;1939;48.720;9.166;2023-08-12T14:54:40;2.10;;;1.90;;
3847;SDS011;1939;48.720;9.166;2023-08-12T14:57:06;5.20;;;2.30;;
3847;SDS011;1939;48.720;9.166;2023-08-12T14:59:31;2.03;;;1.90;;
3847;SDS011;1939;48.720;9.166;2023-08-12T15:01:56;3.53;;;2.20;;
3847;SDS011;1939;48.720;9.166;2023-08-12T15:04:21;2.83;;;2.37;;
3847;SDS011;1939;48.720;9.166;2023-08-12T15:06:47;4.50;;;2.20;;
3847;SDS011;1939;48.720;9.166;2023-08-12T15:09:12;3.00;;;2.10;;
3847;SDS011;1939;48.720;9.166;2023-08-12T15:11:38;4.57;;;2.10;;
3847;SDS011;1939;48.720;9.166;2023-08-12T15:14:03;4.17;;;3.13;;
3847;SDS011;1939;48.720;9.166;2023-08-12T15:16:28;3.97;;;2.60;;
3847;SDS011;1939;48.720;9.166;2023-08-12T15:18:54;2.63;;;2.20;;
3847;SDS011;1939;48.720;9.166;2023-08-12T15:21:19;2.90;;;2.60;;
3847;SDS011;1939;48.720;9.166;2023-08-12T15:23:44;3.50;;;2.40;;
3847;SDS011;1939;48.720;9.166;2023-08-12T15:26:09;3.10;;;2.70;;
3847;SDS011;1939;48.720;9.166;2023-08-12T15:28:35;3.13;;;2.27;;
3847;SDS011;1939;48.720;9.166;2023-08-12T15:31:00;4.63;;;2.10;;
3847;SDS011;1939;48.720;9.166;2023-08-12T15:33:25;3.53;;;2.87;;
3847;SDS011;1939;48.720;9.166;2023-08-12T15:35:50;3.63;;;1.80;;